| time (UTC) | temp F | wind direction | speed knots | gust knots | rain 1hr in | rain 24hr in | rain mn in | humidity % | barometer mb |
| 20260507135004 | 47 | 310 | 4.3 | 7.0 | 0.00 | 0.02 | 0.00 | 69 | 899.0 |
| 20260507134003 | 46 | 310 | 5.2 | 7.8 | 0.00 | 0.02 | 0.00 | 71 | 899.0 |
| 20260507133004 | 45 | 315 | 4.3 | 7.8 | 0.00 | 0.02 | 0.00 | 73 | 899.1 |
| 20260507131004 | 42 | 319 | 6.1 | 8.7 | 0.00 | 0.02 | 0.00 | 76 | 899.0 |
| 20260507130004 | 41 | 315 | 5.2 | 7.0 | 0.00 | 0.02 | 0.00 | 77 | 899.0 |
| 20260507125004 | 40 | 315 | 4.3 | 7.0 | 0.00 | 0.02 | 0.00 | 76 | 898.9 |
| 20260507124004 | 39 | 319 | 3.5 | 6.1 | 0.00 | 0.02 | 0.00 | 74 | 898.8 |
| 20260507123004 | 38 | 314 | 2.6 | 4.3 | 0.00 | 0.02 | 0.00 | 75 | 898.8 |
| 20260507122005 | 38 | 268 | 2.6 | 5.2 | 0.00 | 0.02 | 0.00 | 76 | 898.7 |
| 20260507121004 | 38 | 284 | 2.6 | 5.2 | 0.00 | 0.02 | 0.00 | 76 | 898.6 |
| 20260507120004 | 38 | 287 | 1.7 | 6.1 | 0.00 | 0.02 | 0.00 | 75 | 898.6 |
| 20260507115004 | 38 | 297 | 4.3 | 6.1 | 0.00 | 0.02 | 0.00 | 75 | 898.6 |
| 20260507112004 | 39 | 308 | 2.6 | 5.2 | 0.00 | 0.02 | 0.00 | 74 | 898.5 |
| 20260507111004 | 38 | 313 | 2.6 | 5.2 | 0.00 | 0.02 | 0.00 | 75 | 898.4 |
| 20260507110004 | 39 | 298 | 1.7 | 2.6 | 0.00 | 0.02 | 0.00 | 74 | 898.5 |
| 20260507105004 | 39 | 316 | 2.6 | 5.2 | 0.00 | 0.02 | 0.00 | 74 | 898.6 |
| 20260507104004 | 40 | 324 | 2.6 | 5.2 | 0.00 | 0.02 | 0.00 | 73 | 898.5 |
| 20260507103004 | 40 | 328 | 2.6 | 4.3 | 0.00 | 0.02 | 0.00 | 73 | 898.5 |
| 20260507102006 | 41 | 328 | 2.6 | 4.3 | 0.00 | 0.02 | 0.00 | 73 | 898.6 |
| 20260507100005 | 43 | 358 | 0.9 | 1.7 | 0.00 | 0.02 | 0.00 | 68 | 898.5 |
| 20260507095004 | 43 | 31 | 1.7 | 2.6 | 0.00 | 0.02 | 0.00 | 69 | 898.4 |
| 20260507094004 | 44 | 34 | 2.6 | 2.6 | 0.00 | 0.02 | 0.00 | 68 | 898.4 |
| 20260507093004 | 42 | 18 | 2.6 | 6.1 | 0.00 | 0.02 | 0.00 | 70 | 898.4 |
| 20260507091004 | 43 | 116 | 4.3 | 5.2 | 0.00 | 0.02 | 0.00 | 71 | 898.1 |
| 20260507090004 | 43 | 141 | 2.6 | 7.8 | 0.00 | 0.02 | 0.00 | 70 | 898.2 |
| 20260507085004 | 44 | 137 | 5.2 | 7.8 | 0.00 | 0.02 | 0.00 | 68 | 898.0 |
| 20260507084003 | 45 | 149 | 6.1 | 7.0 | 0.00 | 0.02 | 0.00 | 67 | 898.0 |
| 20260507082004 | 46 | 107 | 0.9 | 1.7 | 0.00 | 0.02 | 0.00 | 63 | 898.7 |
| 20260507081003 | 47 | 58 | 0.9 | 2.6 | 0.00 | 0.02 | 0.00 | 63 | 898.8 |
| 20260507080004 | 47 | 14 | 2.6 | 5.2 | 0.00 | 0.02 | 0.00 | 64 | 899.1 |
| 20260507075004 | 46 | 14 | 2.6 | 5.2 | 0.00 | 0.02 | 0.00 | 65 | 899.2 |
| 20260507073004 | 45 | 24 | 3.5 | 5.2 | 0.00 | 0.02 | 0.00 | 67 | 899.3 |
| 20260507072004 | 45 | 26 | 4.3 | 5.2 | 0.00 | 0.02 | 0.00 | 67 | 899.3 |
| 20260507071004 | 44 | 23 | 2.6 | 5.2 | 0.00 | 0.02 | 0.00 | 68 | 899.2 |
| 20260507070006 | 44 | 353 | 4.3 | 6.1 | 0.00 | 0.02 | 0.00 | 68 | 899.3 |
| 20260507065003 | 44 | 0 | 4.3 | 6.1 | 0.00 | 0.02 | 0.00 | 68 | 899.2 |
| 20260507064004 | 44 | 353 | 4.3 | 6.1 | 0.00 | 0.02 | 0.00 | 68 | 899.3 |
| 20260507062004 | 45 | 13 | 7.0 | 8.7 | 0.00 | 0.02 | 0.00 | 66 | 898.5 |
| 20260507060004 | 46 | 17 | 7.0 | 12.2 | 0.00 | 0.02 | 0.00 | 66 | 898.7 |
| 20260507055004 | 47 | 20 | 9.6 | 13.0 | 0.00 | 0.02 | 0.00 | 64 | 898.3 |
| 20260507054004 | 47 | 21 | 10.4 | 13.0 | 0.00 | 0.02 | 0.00 | 65 | 898.1 |
| 20260507053004 | 47 | 21 | 10.4 | 17.4 | 0.00 | 0.02 | 0.00 | 66 | 897.9 |
| 20260507052006 | 47 | 33 | 13.9 | 18.2 | 0.00 | 0.02 | 0.00 | 68 | 898.0 |
| 20260507051006 | 48 | 39 | 13.9 | 17.4 | 0.00 | 0.02 | 0.00 | 66 | 898.0 |
| 20260507050006 | 48 | 39 | 13.9 | 18.2 | 0.01 | 0.02 | 0.00 | 67 | 897.6 |
| 20260507045006 | 49 | 39 | 13.9 | 20.0 | 0.02 | 0.02 | 0.02 | 67 | 897.7 |
| 20260507044006 | 49 | 39 | 14.8 | 19.1 | 0.02 | 0.02 | 0.02 | 67 | 897.5 |
| 20260507043005 | 50 | 32 | 14.8 | 19.1 | 0.02 | 0.02 | 0.02 | 66 | 897.3 |
| 20260507042005 | 51 | 30 | 12.2 | 17.4 | 0.02 | 0.02 | 0.02 | 65 | 897.4 |
| 20260507041005 | 54 | 37 | 11.3 | 14.8 | 0.02 | 0.02 | 0.02 | 60 | 897.2 |
| 20260507035005 | 55 | 41 | 13.0 | 17.4 | 0.00 | 0.00 | 0.00 | 52 | 897.3 |
| 20260507034005 | 55 | 41 | 12.2 | 13.9 | 0.00 | 0.00 | 0.00 | 49 | 896.9 |
| 20260507033005 | 55 | 37 | 12.2 | 13.9 | 0.00 | 0.00 | 0.00 | 48 | 897.1 |
| 20260507032005 | 55 | 37 | 12.2 | 13.9 | 0.00 | 0.00 | 0.00 | 48 | 896.8 |
| 20260507031006 | 55 | 39 | 11.3 | 13.9 | 0.00 | 0.00 | 0.00 | 47 | 896.3 |
| 20260507030005 | 55 | 40 | 9.6 | 13.9 | 0.00 | 0.00 | 0.00 | 47 | 896.2 |
| 20260507025006 | 55 | 40 | 10.4 | 12.2 | 0.00 | 0.00 | 0.00 | 47 | 895.7 |
| 20260507024005 | 55 | 52 | 6.1 | 8.7 | 0.00 | 0.00 | 0.00 | 47 | 895.5 |
| 20260507023005 | 56 | 55 | 6.1 | 12.2 | 0.00 | 0.00 | 0.00 | 47 | 895.5 |
| 20260507022006 | 56 | 61 | 7.0 | 11.3 | 0.00 | 0.00 | 0.00 | 47 | 895.0 |
| 20260507021005 | 56 | 55 | 6.1 | 11.3 | 0.00 | 0.00 | 0.00 | 46 | 894.7 |
| 20260507020006 | 57 | 49 | 6.1 | 13.9 | 0.00 | 0.00 | 0.00 | 46 | 894.5 |
| 20260507015005 | 57 | 77 | 7.8 | 13.0 | 0.00 | 0.00 | 0.00 | 45 | 894.0 |
| 20260507013006 | 58 | 85 | 8.7 | 15.6 | 0.00 | 0.00 | 0.00 | 44 | 893.5 |
| 20260507012006 | 58 | 92 | 8.7 | 12.2 | 0.00 | 0.00 | 0.00 | 44 | 893.5 |
| 20260507010005 | 60 | 107 | 11.3 | 18.2 | 0.00 | 0.00 | 0.00 | 43 | 893.1 |
| 20260507005005 | 60 | 104 | 8.7 | 15.6 | 0.00 | 0.00 | 0.00 | 43 | 893.0 |
| 20260507004005 | 61 | 85 | 8.7 | 18.2 | 0.00 | 0.00 | 0.00 | 41 | 892.6 |
| 20260507003005 | 61 | 88 | 11.3 | 18.2 | 0.00 | 0.00 | 0.00 | 42 | 892.8 |
| 20260507002006 | 61 | 92 | 8.7 | 18.2 | 0.00 | 0.00 | 0.00 | 41 | 892.8 |
| 20260507001006 | 62 | 73 | 11.3 | 20.0 | 0.00 | 0.00 | 0.00 | 40 | 892.7 |
| 20260507000006 | 62 | 81 | 11.3 | 19.1 | 0.00 | 0.00 | 0.00 | 40 | 892.6 |
| 20260506235005 | 63 | 61 | 9.6 | 18.2 | 0.00 | 0.00 | 0.00 | 40 | 892.5 |
| 20260506232005 | 64 | 90 | 11.3 | 19.1 | 0.00 | 0.00 | 0.00 | 38 | 892.5 |
| 20260506231005 | 64 | 89 | 7.8 | 18.2 | 0.00 | 0.00 | 0.00 | 38 | 892.6 |
| 20260506230005 | 65 | 83 | 11.3 | 18.2 | 0.00 | 0.00 | 0.00 | 37 | 892.4 |
| 20260506225005 | 65 | 93 | 9.6 | 20.0 | 0.00 | 0.00 | 0.00 | 37 | 892.4 |
| 20260506224005 | 65 | 111 | 13.9 | 20.0 | 0.00 | 0.00 | 0.00 | 36 | 892.0 |
| 20260506223005 | 65 | 104 | 10.4 | 20.0 | 0.00 | 0.00 | 0.00 | 36 | 892.2 |
| 20260506222005 | 65 | 96 | 7.8 | 14.8 | 0.00 | 0.00 | 0.00 | 37 | 892.3 |
| 20260506221005 | 65 | 110 | 8.7 | 15.6 | 0.00 | 0.00 | 0.00 | 36 | 892.4 |
| 20260506220005 | 64 | 110 | 8.7 | 14.8 | 0.00 | 0.00 | 0.00 | 37 | 892.5 |
| 20260506215006 | 64 | 98 | 7.0 | 17.4 | 0.00 | 0.00 | 0.00 | 37 | 892.5 |
| 20260506214005 | 64 | 137 | 10.4 | 17.4 | 0.00 | 0.00 | 0.00 | 38 | 892.6 |
| 20260506213005 | 65 | 118 | 8.7 | 14.8 | 0.00 | 0.00 | 0.00 | 37 | 892.6 |
| 20260506211005 | 64 | 119 | 8.7 | 15.6 | 0.00 | 0.00 | 0.00 | 38 | 892.6 |
| 20260506210005 | 64 | 139 | 5.2 | 12.2 | 0.00 | 0.00 | 0.00 | 38 | 892.8 |
| 20260506204005 | 64 | 81 | 7.8 | 13.9 | 0.00 | 0.00 | 0.00 | 37 | 893.0 |
| 20260506203005 | 63 | 130 | 10.4 | 19.1 | 0.00 | 0.00 | 0.00 | 39 | 893.1 |
| 20260506202006 | 62 | 62 | 5.2 | 15.6 | 0.00 | 0.00 | 0.00 | 39 | 893.1 |
| 20260506201005 | 62 | 90 | 7.8 | 18.2 | 0.00 | 0.00 | 0.00 | 40 | 893.2 |
| 20260506200005 | 63 | 118 | 7.8 | 12.2 | 0.00 | 0.00 | 0.00 | 39 | 893.2 |
| 20260506195005 | 62 | 161 | 7.0 | 14.8 | 0.00 | 0.00 | 0.00 | 40 | 893.5 |
| 20260506194005 | 63 | 83 | 7.8 | 12.2 | 0.00 | 0.00 | 0.00 | 40 | 893.4 |
| 20260506191005 | 60 | 129 | 7.0 | 13.0 | 0.00 | 0.00 | 0.00 | 42 | 893.8 |
| 20260506190006 | 61 | 92 | 7.8 | 13.0 | 0.00 | 0.00 | 0.00 | 42 | 893.6 |
| 20260506185005 | 60 | 146 | 6.1 | 15.6 | 0.00 | 0.00 | 0.00 | 43 | 893.8 |
| 20260506184005 | 59 | 108 | 6.1 | 17.4 | 0.00 | 0.00 | 0.00 | 44 | 893.9 |
| 20260506183005 | 59 | 189 | 4.3 | 10.4 | 0.00 | 0.00 | 0.00 | 44 | 894.1 |
| 20260506181005 | 58 | 137 | 8.7 | 13.9 | 0.00 | 0.00 | 0.00 | 47 | 894.3 |
| 20260506180006 | 58 | 78 | 5.2 | 14.8 | 0.00 | 0.00 | 0.00 | 46 | 894.3 |
| 20260506175005 | 57 | 54 | 3.5 | 12.2 | 0.00 | 0.00 | 0.00 | 48 | 894.4 |
| 20260506174005 | 56 | 119 | 5.2 | 13.0 | 0.00 | 0.00 | 0.00 | 49 | 894.6 |
| 20260506173005 | 56 | 107 | 7.0 | 13.0 | 0.00 | 0.00 | 0.00 | 50 | 894.7 |
| 20260506172005 | 56 | 101 | 6.1 | 13.0 | 0.00 | 0.00 | 0.00 | 48 | 894.8 |
| 20260506171005 | 55 | 102 | 7.8 | 17.4 | 0.00 | 0.00 | 0.00 | 50 | 894.5 |
| 20260506170005 | 55 | 109 | 5.2 | 14.8 | 0.00 | 0.00 | 0.00 | 50 | 894.6 |
| 20260506165005 | 54 | 82 | 7.8 | 14.8 | 0.00 | 0.00 | 0.00 | 51 | 894.6 |
| 20260506164005 | 53 | 49 | 6.1 | 12.2 | 0.00 | 0.00 | 0.00 | 53 | 894.6 |
| 20260506163005 | 53 | 119 | 7.8 | 13.0 | 0.00 | 0.00 | 0.00 | 54 | 894.6 |
| 20260506162005 | 52 | 138 | 8.7 | 13.0 | 0.00 | 0.00 | 0.00 | 55 | 894.5 |
| 20260506161005 | 52 | 119 | 7.8 | 15.6 | 0.00 | 0.00 | 0.00 | 56 | 894.4 |
| 20260506160005 | 51 | 105 | 5.2 | 13.0 | 0.00 | 0.00 | 0.00 | 56 | 894.4 |
| 20260506155005 | 51 | 98 | 5.2 | 10.4 | 0.00 | 0.00 | 0.00 | 56 | 894.5 |
| 20260506154005 | 51 | 88 | 7.0 | 13.0 | 0.00 | 0.00 | 0.00 | 57 | 894.4 |
| 20260506153005 | 50 | 86 | 7.8 | 13.9 | 0.00 | 0.00 | 0.00 | 57 | 894.0 |
| 20260506152005 | 49 | 127 | 10.4 | 13.9 | 0.00 | 0.00 | 0.00 | 59 | 894.0 |
| 20260506151005 | 49 | 121 | 7.8 | 13.0 | 0.00 | 0.00 | 0.00 | 59 | 894.0 |
| 20260506150005 | 48 | 96 | 7.0 | 12.2 | 0.00 | 0.00 | 0.00 | 61 | 893.9 |
| 20260506145005 | 48 | 106 | 8.7 | 18.2 | 0.00 | 0.00 | 0.00 | 61 | 893.9 |
| 20260506144005 | 48 | 116 | 8.7 | 15.6 | 0.00 | 0.00 | 0.00 | 60 | 893.6 |
| 20260506143005 | 47 | 106 | 6.1 | 13.9 | 0.00 | 0.00 | 0.00 | 61 | 893.8 |
| 20260506142004 | 47 | 92 | 7.0 | 12.2 | 0.00 | 0.00 | 0.00 | 61 | 893.7 |
| 20260506141005 | 46 | 99 | 6.1 | 13.9 | 0.00 | 0.00 | 0.00 | 63 | 893.9 |
| 20260506140005 | 45 | 80 | 7.8 | 13.9 | 0.00 | 0.00 | 0.00 | 64 | 893.9 |